Tropical Cyclones
[Index]
Main Index Home Page Stock Weather Photos Extreme Storms Discussion Storm News and Storm Chasing Reports Tropical Cyclones / Hurricanes / Typhoons Weather Data and Links Wild Fires / Bushfires Weather Observation Techniques Weather Picture Catalogue Tornado Pictures and Reports Stock Video Footage and DVDs for sale
Season 2006-2007 Tropical Cyclone ANITA Track Map
Season 2006-2007 Summaries: [BoM-AU] [JTWC-AU] [JTWC-SIO] [JTWC-SPAC] [JTWC-SH]
<<- Previous TC | JTWC 2006-2007 Season | Next TC ->>

click for intensity scale information  Lat/long Grid: Show Hide

 Date Labels: Show Hide

Joint Typhoon Warning Centre Cyclone Data

Name: ANITA

27 Nov 2006 06:00 UTC to 04 Dec 2006 00:00 UTC

    date/time    lat    long     hPa   cat  kts
2006-11-27 06    7.3    47.2    1004         20          
2006-11-27 12    7.7    46.5    1004         25          
2006-11-27 18    8.2    45.9    1002         25          
2006-11-28 00    8.8    45.3    1002         30          
2006-11-28 06    9.4    44.7    1000         30          
2006-11-28 12    9.8    44.0    1000         30          
2006-11-28 18   10.1    43.2    1000         30          
2006-11-29 00   10.3    42.6    1000         30          
2006-11-29 06   10.5    42.1    1000         30          
2006-11-29 12   10.8    41.8     996         35          
2006-11-29 18   11.2    41.7     993    1    40          
2006-11-30 00   11.6    41.8     993    1    40          
2006-11-30 06   12.1    42.0     991    1    45          
2006-11-30 12   12.8    42.2     991    1    45          
2006-11-30 18   13.5    42.4     989    1    45          
2006-12-01 00   14.1    42.5     991    1    45          
2006-12-01 06   14.7    42.6     991    1    45          
2006-12-01 12   15.3    42.6     991    1    45          
2006-12-01 18   15.9    42.6     994    1    40          
2006-12-02 00   16.3    42.6    1000         30          
2006-12-02 06   16.6    42.5    1000         30          
2006-12-02 12   16.9    42.4    1000         30          
2006-12-02 18   17.4    42.2    1002         25          
2006-12-03 00   17.8    41.9    1002         25          
2006-12-03 06   18.2    41.5    1002         25          
2006-12-03 12   19.0    41.2    1002         25          
2006-12-03 18   19.8    40.9    1002         25          
2006-12-04 00   20.5    40.7    1002         25          
Winds are 1-min average.

Tropical cyclone tracks developed by Michael Bath using data from the Joint Typhoon Warning Centre Best Tracks and Google Maps.


[Australian Severe Weather index] [Copyright Notice] [Email Contacts] [Search This Site] [Privacy Policy]
Document: tropical_cyclone_anita.htm Updated: 28 June 2017